Terminal Aerodrome Forecast
Issued by NWS Missoula, MT

Home | Current Version | Previous Version | Text Only | Print | Product List | Glossary On
Versions: 1 2 3 4 5 6 7 8 9 10 11 12 13 14 15
799
FTUS45 KMSO 122320
TAFBTM
TAF
KBTM 122320Z 1300/1324 18004KT P6SM BKN150
     FM131300 31010KT 4SM -SN BR OVC025
     FM131600 30013G24KT 4SM -SN BR OVC025
     FM131800 30016G26KT P6SM VCSH OVC050=

USA.gov is the U.S. government's official web portal to all federal, state and local government web resources and services.